createdAt,value
2018-09-21T09:11:31.412Z,1001.13
2018-09-21T09:12:30.779Z,1001.18
2018-09-21T09:13:31.304Z,1001.33
2018-09-21T09:14:30.868Z,1001.39
2018-09-21T09:15:31.235Z,1001.43
2018-09-21T09:16:30.718Z,1001.49
2018-09-21T09:17:31.196Z,1001.50
2018-09-21T09:18:30.271Z,1001.65
2018-09-21T09:19:31.166Z,1001.70
2018-09-21T09:20:31.478Z,1001.77
2018-09-21T09:21:31.369Z,1001.84
2018-09-21T09:22:31.138Z,1001.83
2018-09-21T09:23:30.460Z,1001.89
2018-09-21T09:24:30.951Z,1002.03
2018-09-21T09:25:29.646Z,1002.11
2018-09-21T09:26:29.684Z,1002.27
2018-09-21T09:27:31.419Z,1002.08
2018-09-21T09:28:28.979Z,1002.12
2018-09-21T09:29:28.747Z,1001.91
2018-09-21T09:30:28.810Z,1002.04
2018-09-21T09:31:28.696Z,1002.03
2018-09-21T09:32:28.655Z,1001.91
2018-09-21T09:33:28.640Z,1001.78
2018-09-21T09:34:28.612Z,1001.81
2018-09-21T09:35:28.568Z,1001.94
2018-09-21T09:36:28.550Z,1001.92
2018-09-21T09:37:28.531Z,1002.00
2018-09-21T09:38:28.485Z,1002.11
2018-09-21T09:39:28.493Z,1002.11
2018-09-21T09:40:28.436Z,1002.27
2018-09-21T09:41:28.474Z,1002.06
2018-09-21T09:42:28.363Z,1002.06
2018-09-21T09:43:28.388Z,1002.00
2018-09-21T09:44:28.310Z,1001.93
2018-09-21T09:45:28.280Z,1001.96
2018-09-21T09:46:28.251Z,1002.05
2018-09-21T09:47:28.255Z,1002.08
2018-09-21T09:48:28.270Z,1002.05
2018-09-21T09:49:28.162Z,1002.04
2018-09-21T09:50:28.171Z,1002.07
2018-09-21T09:51:28.231Z,1001.90
2018-09-21T09:52:28.096Z,1002.06
2018-09-21T09:53:28.091Z,1002.18
2018-09-21T09:54:28.079Z,1002.06
2018-09-21T09:55:27.987Z,1002.03
2018-09-21T09:56:27.992Z,1002.00
2018-09-21T09:57:27.935Z,1001.95
2018-09-21T09:58:28.003Z,1001.94
2018-09-21T09:59:27.961Z,1001.99
2018-09-21T10:00:27.851Z,1002.05
2018-09-21T10:01:27.811Z,1002.02
2018-09-21T10:02:27.811Z,1002.02
2018-09-21T10:03:27.769Z,1002.06
2018-09-21T10:04:27.722Z,1002.01
2018-09-21T10:05:27.708Z,1002.02
2018-09-21T10:06:27.669Z,1001.95
2018-09-21T10:07:27.704Z,1001.90
2018-09-21T10:08:27.619Z,1001.91
2018-09-21T10:09:27.646Z,1002.00
2018-09-21T10:10:27.653Z,1001.96
2018-09-21T10:11:27.616Z,1002.05
2018-09-21T10:12:27.499Z,1002.05
2018-09-21T10:13:27.528Z,1002.00
2018-09-21T10:14:27.489Z,1002.11
2018-09-21T10:15:27.406Z,1002.18
2018-09-21T10:16:27.589Z,1002.22
2018-09-21T10:17:27.467Z,1002.18
2018-09-21T10:18:27.413Z,1002.18
2018-09-21T10:19:27.484Z,1002.10
2018-09-21T10:20:27.439Z,1002.10
2018-09-21T10:21:27.543Z,1002.16
2018-09-21T10:22:27.382Z,1002.20
2018-09-21T10:23:27.415Z,1002.11
2018-09-21T10:24:27.150Z,1002.09
2018-09-21T10:25:27.332Z,1002.19
2018-09-21T10:26:27.244Z,1002.16
2018-09-21T10:27:27.167Z,1002.18
2018-09-21T10:28:27.549Z,1002.15
2018-09-21T10:29:27.007Z,1002.20
2018-09-21T10:30:27.098Z,1002.21
2018-09-21T10:31:27.028Z,1002.26
2018-09-21T10:32:26.951Z,1002.22
2018-09-21T10:33:26.958Z,1002.17
2018-09-21T10:34:27.300Z,1002.19
2018-09-21T10:35:26.903Z,1002.32
2018-09-21T10:36:26.849Z,1002.30
2018-09-21T10:37:26.936Z,1002.34
2018-09-21T10:38:26.756Z,1002.35
2018-09-21T10:39:26.825Z,1002.33
2018-09-21T10:40:26.843Z,1002.36
2018-09-21T10:41:26.667Z,1002.37
2018-09-21T10:42:26.854Z,1002.42
2018-09-21T10:43:26.932Z,1002.39
2018-09-21T10:44:26.592Z,1002.37
2018-09-21T10:45:26.785Z,1002.43
2018-09-21T10:46:26.676Z,1002.43
2018-09-21T10:47:26.489Z,1002.46
2018-09-21T10:48:26.692Z,1002.44
2018-09-21T10:49:26.483Z,1002.37
2018-09-21T10:50:26.579Z,1002.45
2018-09-21T10:51:26.468Z,1002.44
2018-09-21T10:52:26.570Z,1002.45
2018-09-21T10:53:26.354Z,1002.44
2018-09-21T10:54:26.431Z,1002.49
2018-09-21T10:55:26.563Z,1002.55
2018-09-21T10:56:26.406Z,1002.49
2018-09-21T10:57:26.432Z,1002.52
2018-09-21T10:58:26.237Z,1002.46
2018-09-21T10:59:26.284Z,1002.54
2018-09-21T11:00:26.132Z,1002.60
2018-09-21T11:01:26.139Z,1002.54
2018-09-21T11:02:26.077Z,1002.53
2018-09-21T11:03:26.061Z,1002.59
2018-09-21T11:04:26.104Z,1002.48
2018-09-21T11:05:26.155Z,1002.48
2018-09-21T11:06:25.961Z,1002.46
2018-09-21T11:07:25.931Z,1002.47
2018-09-21T11:08:25.907Z,1002.41
2018-09-21T11:09:25.886Z,1002.40
2018-09-21T11:10:25.957Z,1002.39
2018-09-21T11:11:25.813Z,1002.44
2018-09-21T11:12:25.824Z,1002.33
2018-09-21T11:13:25.760Z,1002.38
2018-09-21T11:14:25.813Z,1002.45
2018-09-21T11:15:25.712Z,1002.37
2018-09-21T11:16:25.790Z,1002.48
2018-09-21T11:17:25.759Z,1002.42
2018-09-21T11:18:25.753Z,1002.45
2018-09-21T11:19:25.596Z,1002.43
2018-09-21T11:20:25.643Z,1002.40
2018-09-21T11:21:25.638Z,1002.35
2018-09-21T11:22:25.509Z,1002.45
2018-09-21T11:23:25.503Z,1002.43
2018-09-21T11:24:25.450Z,1002.45
2018-09-21T11:25:25.484Z,1002.48
2018-09-21T11:26:25.387Z,1002.57
2018-09-21T11:27:25.365Z,1002.49
2018-09-21T11:28:25.458Z,1002.48
2018-09-21T11:29:25.301Z,1002.49
2018-09-21T11:30:25.305Z,1002.63
2018-09-21T11:31:44.859Z,1002.51
2018-09-21T11:35:15.946Z,1002.67
2018-09-21T11:36:15.091Z,1002.64
2018-09-21T11:38:21.852Z,1002.79
2018-09-21T11:39:21.385Z,1002.71
2018-09-21T11:47:16.966Z,1002.83
2018-09-21T11:48:18.438Z,1002.69
2018-09-21T11:49:17.741Z,1002.76
2018-09-21T11:50:16.296Z,1002.71
2018-09-21T11:51:16.639Z,1002.74
2018-09-21T11:52:17.980Z,1002.81
2018-09-21T11:53:19.713Z,1002.73
2018-09-21T11:54:20.110Z,1002.74
2018-09-21T11:55:16.610Z,1002.66
2018-09-21T12:02:06.213Z,1002.73
2018-09-21T12:03:06.566Z,1002.82
2018-09-21T12:05:23.693Z,1002.83
2018-09-21T12:06:23.035Z,1002.87
2018-09-21T12:14:11.868Z,1003.08
2018-09-21T12:15:11.691Z,1003.05
2018-09-21T12:17:14.755Z,1003.11
2018-09-21T12:18:14.434Z,1003.07
2018-09-21T12:19:13.920Z,1003.13
2018-09-21T12:20:13.728Z,1003.18
2018-09-21T12:21:14.465Z,1003.12
2018-09-21T12:22:13.404Z,1003.17
2018-09-21T12:23:15.238Z,1003.19
2018-09-21T12:24:14.309Z,1003.27
2018-09-21T12:25:13.915Z,1003.26
2018-09-21T12:26:14.294Z,1003.21
2018-09-21T12:27:14.207Z,1003.23
2018-09-21T12:28:42.083Z,1003.21
2018-09-21T12:31:57.764Z,1003.31
2018-09-21T12:32:59.241Z,1003.36
2018-09-21T12:38:44.354Z,1003.50
2018-09-21T12:43:46.384Z,1003.64
2018-09-21T12:44:26.050Z,1003.60
2018-09-21T12:49:48.319Z,1003.79
2018-09-21T12:50:46.897Z,1003.77
2018-09-21T12:51:49.616Z,1003.76
2018-09-21T12:59:22.781Z,1004.04
2018-09-21T13:00:22.288Z,1004.05
2018-09-21T13:59:48.315Z,1005.19
2018-09-21T14:00:47.240Z,1005.31
2018-09-21T14:07:00.193Z,1005.57
2018-09-21T14:22:33.751Z,1005.13
2018-09-21T15:15:02.958Z,1006.10
2018-09-21T15:19:29.329Z,1005.81
2018-09-21T15:45:35.341Z,1006.14
2018-09-21T16:01:50.255Z,1006.10
2018-09-21T16:02:44.202Z,1006.08
2018-09-21T16:03:42.350Z,1006.14
2018-09-21T16:08:14.651Z,1006.28
2018-09-21T16:09:13.058Z,1006.27
2018-09-21T16:12:09.713Z,1006.23
2018-09-21T16:18:24.054Z,1006.25
2018-09-21T16:19:15.118Z,1006.27
2018-09-21T16:21:19.985Z,1006.27
2018-09-21T16:28:33.717Z,1006.17
2018-09-21T16:29:32.504Z,1006.30
2018-09-21T16:36:26.808Z,1006.14
2018-09-21T16:37:24.569Z,1006.09
2018-09-21T16:39:26.141Z,1006.20
2018-09-21T16:40:25.042Z,1006.21
2018-09-21T16:42:31.315Z,1006.17
2018-09-21T16:43:31.037Z,1006.17
2018-09-21T16:45:38.385Z,1006.21
2018-09-21T16:46:34.996Z,1006.28
2018-09-21T16:47:35.402Z,1006.22
2018-09-21T16:48:33.732Z,1006.32
2018-09-21T16:49:33.332Z,1006.10
2018-09-21T16:50:34.112Z,1006.21
2018-09-21T16:51:33.095Z,1006.21
2018-09-21T16:52:33.321Z,1006.26
2018-09-21T16:53:35.424Z,1006.13
2018-09-21T16:54:33.601Z,1006.20
2018-09-21T16:58:29.510Z,1006.33
2018-09-21T16:59:27.781Z,1006.26
2018-09-21T17:00:28.883Z,1006.34
2018-09-21T17:03:07.277Z,1006.35
2018-09-21T17:04:05.679Z,1006.44
2018-09-21T17:07:55.763Z,1006.47
2018-09-21T17:08:56.654Z,1006.43
2018-09-21T17:09:57.992Z,1006.50
2018-09-21T17:10:56.312Z,1006.54
2018-09-21T17:11:58.140Z,1006.59
2018-09-21T17:19:30.737Z,1006.55
2018-09-21T17:20:30.397Z,1006.62
2018-09-21T17:35:27.298Z,1006.69
2018-09-21T17:36:28.260Z,1006.66
2018-09-21T17:44:09.182Z,1006.83
2018-09-21T17:45:08.106Z,1006.87
2018-09-21T17:46:09.690Z,1006.90
2018-09-21T17:47:08.866Z,1006.91
2018-09-21T17:51:48.327Z,1006.98
2018-09-21T18:19:00.474Z,1007.43
